Time;durP1;ratioP1;P1;durP2;ratioP2;P2;SDS_P1;SDS_P2;PMS_P1;PMS_P2;Temp;Humidity;BMP_temperature;BMP_pressure;BME280_temperature;BME280_humidity;BME280_pressure;Samples;Min_cycle;Max_cycle;Signal;HPM_P1;HPM_P2
2021/08/11 04:55:08;;;;;;;;;;;;;;;26.80;63.88;99881.94;1857049;77;20633;-70
2021/08/11 04:57:35;;;;;;;;;;;;;;;26.96;62.90;99885.70;1828950;78;20132;-70
2021/08/11 05:00:02;;;;;;;;;;;;;;;27.10;62.00;99881.27;1829048;78;21132;-71
2021/08/11 05:02:33;;;;;;;;;;;;;;;27.26;61.38;99884.94;1828766;78;20089;-72
2021/08/11 05:05:01;;;;;;;;;;;;;;;27.48;60.37;99881.66;1827836;78;20153;-69
2021/08/11 05:07:27;;;;;;;;;;;;;;;27.72;59.51;99874.47;1823219;78;20101;-68
2021/08/11 05:09:54;;;;;;;;;;;;;;;27.98;58.56;99876.93;1823670;78;20148;-77
2021/08/11 05:12:20;;;;;;;;;;;;;;;28.19;57.84;99866.86;1816436;78;21123;-72
2021/08/11 05:14:47;;;;;;;;;;;;;;;28.39;56.68;99874.92;1827293;78;20126;-76
2021/08/11 05:17:13;;;;;;;;;;;;;;;28.60;56.34;99873.09;1827949;78;20478;-77
2021/08/11 05:19:40;;;;;;;;;;;;;;;28.76;55.81;99874.02;1818045;78;20404;-78
2021/08/11 05:22:06;;;;;;;;;;;;;;;28.92;55.27;99865.55;1827242;78;20128;-71
2021/08/11 05:24:34;;;;;;;;;;;;;;;29.05;54.51;99866.05;1817180;78;22081;-78
2021/08/11 05:27:07;;;;;;;;;;;;;;;29.16;54.07;99876.95;1804730;78;20154;-74
2021/08/11 05:29:39;;;;;;;;;;;;;;;29.28;53.75;99869.58;1815912;78;20109;-77
2021/08/11 05:32:14;;;;;;;;;;;;;;;29.43;53.53;99868.32;1828328;78;20107;-73
2021/08/11 05:34:52;;;;;;;;;;;;;;;29.63;52.79;99860.17;1826021;78;20154;-71
2021/08/11 05:37:28;;;;;;;;;;;;;;;29.85;52.25;99857.48;1791333;80;21073;-72
2021/08/11 05:39:56;;;;;;;;;;;;;;;29.88;51.57;99864.80;1774419;79;20081;-79
2021/08/11 05:42:23;;;;;;;;;;;;;;;29.62;51.76;99864.41;1784312;79;20145;-76
2021/08/11 05:44:51;;;;;;;;;;;;;;;29.18;52.23;99868.19;1776278;79;20111;-69
2021/08/11 05:47:18;;;;;;;;;;;;;;;28.81;53.38;99860.78;1781477;79;20135;-68
2021/08/11 05:49:44;;;;;;;;;;;;;;;28.63;54.01;99854.74;1775355;79;21100;-67
2021/08/11 05:52:11;;;;;;;;;;;;;;;28.64;54.37;99851.03;1777665;79;20112;-67
2021/08/11 05:54:39;;;;;;;;;;;;;;;28.77;53.97;99844.33;1786726;79;20092;-72
2021/08/11 05:57:09;;;;;;;;;;;;;;;28.88;53.88;99841.02;1776266;80;20109;-72
2021/08/11 05:59:39;;;;;;;;;;;;;;;29.09;53.62;99844.48;1753018;80;20156;-71
2021/08/11 06:02:11;;;;;;;;;;;;;;;29.38;52.96;99839.94;1776514;80;21368;-67
2021/08/11 06:04:43;;;;;;;;;;;;;;;29.66;52.44;99835.59;1777673;80;20119;-67
2021/08/11 06:07:14;;;;;;;;;;;;;;;29.88;51.54;99831.25;1787756;79;20390;-68
2021/08/11 06:09:42;;;;;;;;;;;;;;;29.87;51.35;99833.11;1788801;79;20096;-67
2021/08/11 06:12:27;;;;;;;;;;;;;;;29.95;51.34;99831.52;1780957;79;20140;-66
2021/08/11 06:15:13;;;;;;;;;;;;;;;30.02;51.28;99814.84;1770067;80;20095;-69
2021/08/11 06:17:49;;;;;;;;;;;;;;;30.09;51.42;99815.63;1786969;79;20108;-75
2021/08/11 06:20:17;;;;;;;;;;;;;;;30.29;50.93;99819.51;1779652;79;20077;-74
2021/08/11 06:22:44;;;;;;;;;;;;;;;30.53;50.41;99822.69;1782415;79;20183;-69
2021/08/11 06:25:11;;;;;;;;;;;;;;;30.76;50.31;99826.66;1781413;79;20408;-73
2021/08/11 06:27:38;;;;;;;;;;;;;;;30.93;49.71;99822.31;1785959;79;21129;-66
2021/08/11 06:30:06;;;;;;;;;;;;;;;31.12;49.31;99832.56;1789112;79;20076;-64
2021/08/11 06:32:32;;;;;;;;;;;;;;;31.31;48.78;99831.52;1786649;79;20410;-64
2021/08/11 06:34:59;;;;;;;;;;;;;;;31.47;48.65;99834.13;1753216;80;20130;-75
2021/08/11 06:37:26;;;;;;;;;;;;;;;31.62;48.14;99819.72;1769381;79;20078;-65
2021/08/11 06:39:53;;;;;;;;;;;;;;;31.78;47.60;99820.46;1809939;79;21036;-64
2021/08/11 06:42:19;;;;;;;;;;;;;;;31.96;47.18;99824.16;1812534;78;20188;-73
2021/08/11 06:44:54;;;;;;;;;;;;;;;32.08;47.16;99813.67;1787470;79;20100;-73
2021/08/11 06:47:21;;;;;;;;;;;;;;;32.24;46.54;99815.44;1803203;79;20155;-70
2021/08/11 06:49:48;;;;;;;;;;;;;;;32.33;46.26;99816.75;1796210;78;20409;-73
2021/08/11 06:52:15;;;;;;;;;;;;;;;32.39;46.08;99811.77;1796485;79;21180;-75
2021/08/11 06:54:42;;;;;;;;;;;;;;;32.31;46.08;99811.59;1795132;79;20435;-73
2021/08/11 06:57:09;;;;;;;;;;;;;;;32.24;46.67;99818.14;1780311;80;20075;-70
2021/08/11 06:59:36;;;;;;;;;;;;;;;32.28;46.41;99808.01;1792597;79;20110;-67
2021/08/11 07:02:03;;;;;;;;;;;;;;;32.37;45.88;99807.97;1794010;78;20417;-71
2021/08/11 07:04:30;;;;;;;;;;;;;;;32.46;45.64;99810.58;1796070;79;21860;-70
2021/08/11 07:06:56;;;;;;;;;;;;;;;32.57;45.27;99808.13;1787098;79;20080;-72
2021/08/11 07:09:25;;;;;;;;;;;;;;;32.71;44.60;99809.53;1789123;79;20399;-68
2021/08/11 07:11:52;;;;;;;;;;;;;;;32.75;43.85;99809.39;1796415;79;20124;-66
2021/08/11 07:14:19;;;;;;;;;;;;;;;32.81;43.74;99811.11;1796320;79;20106;-71
2021/08/11 07:16:45;;;;;;;;;;;;;;;32.81;42.73;99808.41;1786484;79;21263;-69
2021/08/11 07:19:12;;;;;;;;;;;;;;;32.83;42.64;99806.30;1786466;79;20108;-69
2021/08/11 07:21:40;;;;;;;;;;;;;;;32.93;42.47;99810.58;1796581;79;20185;-70
2021/08/11 07:24:06;;;;;;;;;;;;;;;33.04;42.34;99817.83;1793555;79;20128;-66
2021/08/11 07:26:33;;;;;;;;;;;;;;;33.13;41.82;99821.81;1815754;79;20408;-70
2021/08/11 07:29:00;;;;;;;;;;;;;;;33.03;42.23;99821.59;1804868;78;21510;-70
2021/08/11 07:31:27;;;;;;;;;;;;;;;32.97;42.27;99822.53;1784553;79;20491;-70
2021/08/11 07:33:54;;;;;;;;;;;;;;;32.90;42.36;99821.02;1780209;80;20076;-73
2021/08/11 07:36:21;;;;;;;;;;;;;;;32.87;42.57;99813.39;1800187;79;20188;-76
2021/08/11 07:38:47;;;;;;;;;;;;;;;32.87;42.75;99808.00;1792523;79;20209;-74
2021/08/11 07:41:14;;;;;;;;;;;;;;;32.90;43.21;99815.63;1804995;78;21098;-68
2021/08/11 07:43:41;;;;;;;;;;;;;;;33.08;42.79;99811.44;1788219;79;20114;-72
2021/08/11 07:46:08;;;;;;;;;;;;;;;33.28;42.42;99814.56;1807405;78;20097;-70
2021/08/11 07:48:35;;;;;;;;;;;;;;;33.46;41.97;99811.69;1815923;79;20131;-70
2021/08/11 07:51:03;;;;;;;;;;;;;;;33.59;41.55;99805.16;1801549;78;20182;-73
2021/08/11 07:53:29;;;;;;;;;;;;;;;33.67;41.20;99800.72;1801183;79;21507;-70
2021/08/11 07:55:58;;;;;;;;;;;;;;;33.72;41.21;99800.81;1773204;80;20086;-77
2021/08/11 07:58:26;;;;;;;;;;;;;;;33.80;41.11;99798.29;1801364;79;20159;-70
2021/08/11 08:00:54;;;;;;;;;;;;;;;33.92;40.85;99809.03;1758464;81;20138;-68
2021/08/11 08:03:21;;;;;;;;;;;;;;;34.00;40.26;99806.73;1797336;79;20145;-67
2021/08/11 08:05:50;;;;;;;;;;;;;;;33.88;40.33;99801.95;1802174;78;22377;-65
2021/08/11 08:08:17;;;;;;;;;;;;;;;33.81;40.46;99793.70;1800691;79;20143;-67
2021/08/11 08:10:44;;;;;;;;;;;;;;;33.79;40.58;99792.06;1795811;78;20113;-65
2021/08/11 08:13:11;;;;;;;;;;;;;;;33.85;40.34;99792.98;1795729;78;20155;-75
2021/08/11 08:15:37;;;;;;;;;;;;;;;33.92;40.08;99791.48;1804724;79;20164;-67
2021/08/11 08:18:04;;;;;;;;;;;;;;;33.99;39.78;99797.55;1766974;79;21588;-68
2021/08/11 08:20:33;;;;;;;;;;;;;;;34.05;39.99;99800.06;1802024;78;20143;-73
2021/08/11 08:23:01;;;;;;;;;;;;;;;34.10;39.63;99797.97;1791852;80;20112;-67
2021/08/11 08:25:28;;;;;;;;;;;;;;;34.15;39.73;99792.66;1793324;80;20322;-70
2021/08/11 08:27:55;;;;;;;;;;;;;;;34.19;39.91;99797.86;1789567;80;20127;-73
2021/08/11 08:30:22;;;;;;;;;;;;;;;34.16;39.39;99789.42;1797329;79;21128;-65
2021/08/11 08:32:49;;;;;;;;;;;;;;;34.08;39.53;99793.34;1765456;80;20101;-72
2021/08/11 08:35:16;;;;;;;;;;;;;;;34.13;39.50;99781.27;1767465;80;20371;-66
2021/08/11 08:37:43;;;;;;;;;;;;;;;34.10;39.42;99784.47;1771961;80;20498;-75
2021/08/11 08:40:12;;;;;;;;;;;;;;;33.98;39.32;99787.80;1767853;80;20093;-64
2021/08/11 08:42:40;;;;;;;;;;;;;;;33.81;39.48;99791.00;1754735;81;21086;-68
2021/08/11 08:45:07;;;;;;;;;;;;;;;33.44;39.59;99791.39;1769893;79;20176;-73
2021/08/11 08:47:36;;;;;;;;;;;;;;;33.13;40.54;99787.26;1754074;80;20113;-72
2021/08/11 08:50:05;;;;;;;;;;;;;;;33.03;41.19;99783.82;1767351;79;20518;-75
2021/08/11 08:52:31;;;;;;;;;;;;;;;32.97;41.19;99787.47;1774061;79;20119;-69
2021/08/11 08:54:58;;;;;;;;;;;;;;;32.86;41.03;99783.44;1735183;81;21130;-64
2021/08/11 08:57:26;;;;;;;;;;;;;;;32.71;41.46;99783.39;1771545;80;20116;-72
2021/08/11 08:59:53;;;;;;;;;;;;;;;32.58;41.70;99781.46;1767454;80;20176;-62
2021/08/11 09:02:20;;;;;;;;;;;;;;;32.42;42.54;99774.89;1760773;80;20142;-60
2021/08/11 09:04:50;;;;;;;;;;;;;;;32.27;42.74;99778.60;1778942;80;20135;-66
2021/08/11 09:07:18;;;;;;;;;;;;;;;32.08;43.58;99781.35;1780141;80;21143;-60
2021/08/11 09:09:44;;;;;;;;;;;;;;;32.04;43.45;99773.44;1761801;80;20109;-62
2021/08/11 09:12:20;;;;;;;;;;;;;;;31.89;43.46;99781.16;1750222;82;20467;-65
2021/08/11 09:14:48;;;;;;;;;;;;;;;31.83;43.69;99778.86;1769238;80;20121;-66
2021/08/11 09:17:34;;;;;;;;;;;;;;;31.81;43.53;99772.88;1749672;80;20134;-65
2021/08/11 09:20:01;;;;;;;;;;;;;;;31.74;43.41;99764.61;1753939;80;21805;-65
2021/08/11 09:22:28;;;;;;;;;;;;;;;31.67;43.43;99765.19;1758226;80;20138;-67
2021/08/11 09:25:06;;;;;;;;;;;;;;;31.66;43.88;99763.55;1776692;80;20145;-65
2021/08/11 09:27:34;;;;;;;;;;;;;;;31.76;44.11;99760.63;1761193;80;20139;-66
2021/08/11 09:30:11;;;;;;;;;;;;;;;31.86;43.46;99761.95;1778588;80;20520;-65
2021/08/11 09:32:58;;;;;;;;;;;;;;;31.71;43.38;99759.16;1781316;80;21088;-71
2021/08/11 09:35:33;;;;;;;;;;;;;;;31.68;43.59;99755.58;1773912;80;20115;-69
2021/08/11 09:38:05;;;;;;;;;;;;;;;31.71;43.78;99753.77;1775061;80;20104;-65
2021/08/11 09:40:33;;;;;;;;;;;;;;;31.74;43.85;99750.62;1773079;80;20623;-70
2021/08/11 09:43:04;;;;;;;;;;;;;;;31.75;43.78;99757.64;1740348;81;20109;-65
2021/08/11 09:45:50;;;;;;;;;;;;;;;31.76;43.37;99747.70;1762632;80;21946;-69
2021/08/11 09:48:18;;;;;;;;;;;;;;;31.82;43.72;99752.16;1757014;80;20095;-64
2021/08/11 09:50:59;;;;;;;;;;;;;;;31.92;43.35;99750.25;1744618;81;20358;-74
2021/08/11 09:53:31;;;;;;;;;;;;;;;31.99;43.02;99747.72;1733058;83;20120;-76
2021/08/11 09:56:05;;;;;;;;;;;;;;;32.12;42.79;99746.69;1735742;82;20345;-73
2021/08/11 09:58:40;;;;;;;;;;;;;;;32.16;42.78;99748.69;1734274;83;21319;-68
2021/08/11 10:01:16;;;;;;;;;;;;;;;32.21;42.55;99745.30;1734014;83;20130;-75
2021/08/11 10:03:58;;;;;;;;;;;;;;;32.18;42.27;99747.11;1733241;82;20117;-71
2021/08/11 10:06:26;;;;;;;;;;;;;;;32.09;42.66;99749.84;1734395;83;20428;-69
2021/08/11 10:08:54;;;;;;;;;;;;;;;32.01;42.29;99744.80;1749628;81;20351;-71
2021/08/11 10:11:37;;;;;;;;;;;;;;;31.91;42.27;99745.39;1751908;81;21912;-70
2021/08/11 10:14:05;;;;;;;;;;;;;;;31.81;42.96;99745.95;1779875;79;20154;-71
2021/08/11 10:16:33;;;;;;;;;;;;;;;31.76;42.73;99743.13;1779544;79;20153;-69
2021/08/11 10:19:04;;;;;;;;;;;;;;;31.62;42.62;99742.17;1774430;79;20142;-68
2021/08/11 10:21:36;;;;;;;;;;;;;;;31.49;43.04;99739.18;1760260;79;20069;-67
2021/08/11 10:24:04;;;;;;;;;;;;;;;31.43;43.08;99747.64;1791690;79;21292;-68
2021/08/11 10:26:30;;;;;;;;;;;;;;;31.40;43.05;99739.20;1769093;79;20086;-71
2021/08/11 10:28:57;;;;;;;;;;;;;;;31.37;43.14;99739.13;1782445;79;20136;-71
2021/08/11 10:31:25;;;;;;;;;;;;;;;31.35;43.07;99743.92;1772690;79;20458;-68
2021/08/11 10:33:52;;;;;;;;;;;;;;;31.29;43.07;99742.66;1784082;79;20117;-71
2021/08/11 10:36:18;;;;;;;;;;;;;;;31.22;43.08;99742.75;1779500;79;21115;-72
2021/08/11 10:38:46;;;;;;;;;;;;;;;31.21;43.20;99737.06;1786255;79;20100;-71
2021/08/11 10:41:13;;;;;;;;;;;;;;;31.27;42.74;99742.89;1784232;79;20072;-70
2021/08/11 10:43:40;;;;;;;;;;;;;;;31.33;42.89;99736.59;1786641;80;20389;-72
2021/08/11 10:46:09;;;;;;;;;;;;;;;31.42;42.71;99739.27;1784179;80;20073;-72
2021/08/11 10:48:37;;;;;;;;;;;;;;;31.42;42.40;99736.58;1781137;79;21045;-72
2021/08/11 10:51:03;;;;;;;;;;;;;;;31.41;41.94;99727.39;1787382;80;20080;-69
2021/08/11 10:53:30;;;;;;;;;;;;;;;31.45;42.00;99730.73;1787318;80;20101;-70
2021/08/11 10:55:57;;;;;;;;;;;;;;;31.53;42.12;99731.47;1785130;79;20677;-71
2021/08/11 10:58:42;;;;;;;;;;;;;;;31.54;41.99;99732.59;1774837;80;20414;-73
2021/08/11 11:01:33;;;;;;;;;;;;;;;31.55;41.82;99729.38;1772564;80;21787;-71
2021/08/11 11:04:01;;;;;;;;;;;;;;;31.55;41.99;99730.19;1773483;80;20070;-75
2021/08/11 11:06:51;;;;;;;;;;;;;;;31.64;41.02;99727.44;1742499;81;20116;-70
2021/08/11 11:09:20;;;;;;;;;;;;;;;31.72;40.76;99726.32;1771946;80;20423;-70
2021/08/11 11:11:47;;;;;;;;;;;;;;;31.76;40.49;99724.28;1782246;80;20583;-72
2021/08/11 11:14:51;;;;;;;;;;;;;;;31.75;40.54;99713.22;1783912;79;22329;-70
2021/08/11 11:17:21;;;;;;;;;;;;;;;31.70;40.33;99713.09;1768299;80;20155;-74
2021/08/11 11:20:08;;;;;;;;;;;;;;;31.61;40.63;99714.44;1746490;81;20425;-76
2021/08/11 11:22:43;;;;;;;;;;;;;;;31.54;40.47;99726.38;1725578;81;20154;-71
2021/08/11 11:25:10;;;;;;;;;;;;;;;31.50;40.30;99713.91;1733236;81;20095;-77
2021/08/11 11:27:57;;;;;;;;;;;;;;;31.42;40.46;99714.23;1780766;78;21922;-80
2021/08/11 11:30:30;;;;;;;;;;;;;;;31.36;40.52;99726.73;1753572;82;20500;-74
2021/08/11 11:33:20;;;;;;;;;;;;;;;31.36;40.31;99721.88;1767393;80;20180;-70
2021/08/11 11:35:47;;;;;;;;;;;;;;;31.34;40.47;99712.68;1778930;80;20154;-70
2021/08/11 11:38:14;;;;;;;;;;;;;;;31.31;40.00;99718.52;1782307;80;20268;-70
2021/08/11 11:41:00;;;;;;;;;;;;;;;31.24;39.98;99718.30;1774508;80;21142;-73
2021/08/11 11:43:29;;;;;;;;;;;;;;;31.17;39.43;99711.70;1770374;79;20545;-66
2021/08/11 11:45:56;;;;;;;;;;;;;;;31.07;40.00;99712.20;1779076;79;20486;-68
2021/08/11 11:48:22;;;;;;;;;;;;;;;30.95;39.55;99709.16;1781323;79;20105;-73
2021/08/11 11:50:54;;;;;;;;;;;;;;;30.78;39.90;99715.69;1780668;79;20146;-68
2021/08/11 11:53:23;;;;;;;;;;;;;;;30.66;39.71;99712.92;1779328;80;22006;-64
2021/08/11 11:55:50;;;;;;;;;;;;;;;30.51;39.29;99709.22;1783779;79;20089;-68
2021/08/11 11:58:22;;;;;;;;;;;;;;;30.36;39.61;99710.13;1780366;80;20086;-67
2021/08/11 12:00:52;;;;;;;;;;;;;;;30.22;39.91;99709.95;1784244;79;20086;-65
2021/08/11 12:03:18;;;;;;;;;;;;;;;30.11;40.54;99711.48;1775076;79;20948;-66
2021/08/11 12:05:52;;;;;;;;;;;;;;;30.08;40.63;99705.73;1773452;79;21498;-74
2021/08/11 12:08:20;;;;;;;;;;;;;;;30.10;40.84;99699.62;1779759;79;20162;-65
2021/08/11 12:10:48;;;;;;;;;;;;;;;30.12;40.74;99701.57;1777531;80;20159;-68
2021/08/11 12:13:16;;;;;;;;;;;;;;;30.08;40.93;99699.84;1771580;80;20131;-64
2021/08/11 12:15:51;;;;;;;;;;;;;;;30.08;40.68;99697.68;1779064;79;20123;-71
2021/08/11 12:18:20;;;;;;;;;;;;;;;30.09;40.51;99700.15;1779076;79;21098;-65
2021/08/11 12:20:47;;;;;;;;;;;;;;;30.08;39.94;99697.68;1777017;80;20120;-64
2021/08/11 12:23:21;;;;;;;;;;;;;;;30.05;40.08;99701.63;1776157;79;20109;-64
2021/08/11 12:25:48;;;;;;;;;;;;;;;30.01;40.45;99692.89;1781977;79;20088;-66
2021/08/11 12:28:22;;;;;;;;;;;;;;;29.95;40.70;99696.45;1781567;80;20147;-70
2021/08/11 12:31:00;;;;;;;;;;;;;;;29.86;40.74;99690.01;1777589;80;22019;-72
2021/08/11 12:33:28;;;;;;;;;;;;;;;29.79;40.43;99684.39;1777265;79;20406;-72
2021/08/11 12:35:55;;;;;;;;;;;;;;;29.70;41.14;99689.20;1781103;79;20388;-72
2021/08/11 12:38:31;;;;;;;;;;;;;;;29.66;41.15;99685.83;1783226;79;20152;-73
2021/08/11 12:40:58;;;;;;;;;;;;;;;29.63;41.32;99690.28;1777748;80;20120;-63
2021/08/11 12:43:36;;;;;;;;;;;;;;;29.62;41.12;99688.13;1776821;80;20612;-64
2021/08/11 12:46:05;;;;;;;;;;;;;;;29.63;41.09;99685.74;1776241;80;20225;-64
2021/08/11 12:48:33;;;;;;;;;;;;;;;29.65;41.08;99685.53;1770661;80;20107;-63
2021/08/11 12:51:01;;;;;;;;;;;;;;;29.64;41.31;99694.61;1767951;80;20148;-65
2021/08/11 12:53:31;;;;;;;;;;;;;;;29.63;41.25;99692.45;1751690;80;20079;-73
2021/08/11 12:56:14;;;;;;;;;;;;;;;29.61;41.31;99693.19;1751125;80;21860;-68
2021/08/11 12:59:01;;;;;;;;;;;;;;;29.62;41.28;99693.48;1762527;81;20087;-80
2021/08/11 13:01:39;;;;;;;;;;;;;;;29.61;41.03;99690.50;1771208;80;20123;-66
2021/08/11 13:04:12;;;;;;;;;;;;;;;29.58;41.26;99690.14;1785682;80;20093;-66
2021/08/11 13:06:40;;;;;;;;;;;;;;;29.53;41.11;99690.80;1761120;80;20118;-64
2021/08/11 13:09:10;;;;;;;;;;;;;;;29.47;41.33;99691.66;1760815;81;21022;-65
2021/08/11 13:11:51;;;;;;;;;;;;;;;29.43;41.51;99689.11;1735319;81;20089;-73
2021/08/11 13:14:38;;;;;;;;;;;;;;;29.36;41.72;99685.09;1740934;80;20111;-73
2021/08/11 13:17:05;;;;;;;;;;;;;;;29.30;41.32;99685.12;1765379;80;20315;-70
2021/08/11 13:19:32;;;;;;;;;;;;;;;29.21;41.25;99684.03;1765807;80;20128;-69
2021/08/11 13:21:59;;;;;;;;;;;;;;;29.15;41.55;99690.80;1734996;81;21193;-70
2021/08/11 13:24:26;;;;;;;;;;;;;;;29.11;41.82;99690.92;1747925;81;20202;-73
2021/08/11 13:26:57;;;;;;;;;;;;;;;29.09;41.57;99686.30;1728945;81;20166;-75
2021/08/11 13:29:28;;;;;;;;;;;;;;;29.08;40.99;99685.98;1730364;81;20457;-66
2021/08/11 13:31:55;;;;;;;;;;;;;;;29.09;40.81;99682.27;1744704;81;20135;-68
2021/08/11 13:34:22;;;;;;;;;;;;;;;29.10;40.94;99679.90;1743685;81;21158;-62
2021/08/11 13:36:49;;;;;;;;;;;;;;;29.14;40.05;99681.94;1734043;81;20078;-70
2021/08/11 13:39:16;;;;;;;;;;;;;;;29.15;39.86;99666.16;1756057;80;20088;-64
2021/08/11 13:41:43;;;;;;;;;;;;;;;29.19;39.41;99677.27;1754217;80;20087;-67
2021/08/11 13:44:14;;;;;;;;;;;;;;;29.19;39.09;99671.36;1707872;83;20136;-67
2021/08/11 13:46:39;;;;;;;;;;;;;;;29.21;38.96;99673.83;1727240;82;20552;-67
2021/08/11 13:49:09;;;;;;;;;;;;;;;29.23;39.10;99669.07;1706937;82;20098;-76
2021/08/11 13:51:36;;;;;;;;;;;;;;;29.24;38.63;99667.21;1721712;82;20083;-70
2021/08/11 13:54:03;;;;;;;;;;;;;;;29.25;38.50;99667.52;1737106;82;20385;-67
2021/08/11 13:56:30;;;;;;;;;;;;;;;29.23;38.27;99666.39;1737911;82;20451;-68
2021/08/11 13:58:57;;;;;;;;;;;;;;;29.20;38.03;99664.14;1734516;82;21138;-68
2021/08/11 14:01:24;;;;;;;;;;;;;;;29.14;38.03;99665.84;1715704;82;20195;-70
2021/08/11 14:03:50;;;;;;;;;;;;;;;29.13;38.29;99664.72;1731189;82;20159;-69
2021/08/11 14:06:17;;;;;;;;;;;;;;;29.11;38.23;99665.45;1743895;81;20145;-68
2021/08/11 14:08:44;;;;;;;;;;;;;;;29.10;38.04;99665.15;1766501;81;20140;-69
2021/08/11 14:11:11;;;;;;;;;;;;;;;29.10;38.24;99661.12;1735812;82;21924;-69
2021/08/11 14:13:37;;;;;;;;;;;;;;;29.11;37.90;99657.41;1766178;80;20080;-70
2021/08/11 14:16:04;;;;;;;;;;;;;;;29.12;37.84;99658.53;1735739;82;20104;-69
2021/08/11 14:18:31;;;;;;;;;;;;;;;29.12;38.13;99657.72;1751560;81;20104;-69
2021/08/11 14:20:58;;;;;;;;;;;;;;;29.14;37.86;99667.70;1736015;82;20092;-69
2021/08/11 14:23:24;;;;;;;;;;;;;;;29.12;37.76;99664.42;1766988;80;21084;-69
2021/08/11 14:25:51;;;;;;;;;;;;;;;29.10;37.95;99665.15;1735857;82;20105;-70
2021/08/11 14:28:18;;;;;;;;;;;;;;;29.09;37.57;99658.14;1766886;80;20457;-69
2021/08/11 14:30:44;;;;;;;;;;;;;;;29.06;37.26;99655.38;1736004;82;20116;-69
2021/08/11 14:33:11;;;;;;;;;;;;;;;29.04;36.45;99652.60;1767017;80;20101;-69
2021/08/11 14:35:38;;;;;;;;;;;;;;;28.99;36.36;99653.24;1735933;82;21914;-70
